sensor_id;sensor_type;location;lat;lon;timestamp;temperature;humidity
70947;DHT22;58605;48.700;8.760;2023-12-20T00:01:17;3.00;99.90
70947;DHT22;58605;48.700;8.760;2023-12-20T00:03:45;3.00;99.90
70947;DHT22;58605;48.700;8.760;2023-12-20T00:06:11;3.00;99.90
70947;DHT22;58605;48.700;8.760;2023-12-20T00:08:37;3.10;99.90
70947;DHT22;58605;48.700;8.760;2023-12-20T00:11:04;3.10;99.90
70947;DHT22;58605;48.700;8.760;2023-12-20T00:13:30;3.10;99.90
70947;DHT22;58605;48.700;8.760;2023-12-20T00:15:56;3.10;99.90
70947;DHT22;58605;48.700;8.760;2023-12-20T00:18:22;3.00;99.90
70947;DHT22;58605;48.700;8.760;2023-12-20T00:20:50;3.10;99.90
70947;DHT22;58605;48.700;8.760;2023-12-20T00:23:16;3.10;99.90
70947;DHT22;58605;48.700;8.760;2023-12-20T00:25:43;3.10;99.90
70947;DHT22;58605;48.700;8.760;2023-12-20T00:28:09;3.10;99.90
70947;DHT22;58605;48.700;8.760;2023-12-20T00:30:35;3.10;99.90
70947;DHT22;58605;48.700;8.760;2023-12-20T00:33:02;3.20;99.90
70947;DHT22;58605;48.700;8.760;2023-12-20T00:35:28;3.20;99.90
70947;DHT22;58605;48.700;8.760;2023-12-20T00:37:56;3.20;99.90
70947;DHT22;58605;48.700;8.760;2023-12-20T00:40:22;3.20;99.90
70947;DHT22;58605;48.700;8.760;2023-12-20T00:42:48;3.20;99.90
70947;DHT22;58605;48.700;8.760;2023-12-20T00:45:14;3.20;99.90
70947;DHT22;58605;48.700;8.760;2023-12-20T00:47:40;3.20;99.90
70947;DHT22;58605;48.700;8.760;2023-12-20T00:50:07;3.10;99.90
70947;DHT22;58605;48.700;8.760;2023-12-20T00:52:33;3.20;99.90
70947;DHT22;58605;48.700;8.760;2023-12-20T00:55:01;3.20;99.90
70947;DHT22;58605;48.700;8.760;2023-12-20T00:57:27;3.20;99.90
70947;DHT22;58605;48.700;8.760;2023-12-20T00:59:53;3.20;99.90
70947;DHT22;58605;48.700;8.760;2023-12-20T01:02:19;3.20;99.90
70947;DHT22;58605;48.700;8.760;2023-12-20T01:04:46;3.20;99.90
70947;DHT22;58605;48.700;8.760;2023-12-20T01:07:12;3.20;99.90
70947;DHT22;58605;48.700;8.760;2023-12-20T01:09:38;3.20;99.90
70947;DHT22;58605;48.700;8.760;2023-12-20T01:12:06;3.20;99.90
70947;DHT22;58605;48.700;8.760;2023-12-20T01:14:32;3.20;99.90
70947;DHT22;58605;48.700;8.760;2023-12-20T01:16:59;3.20;99.90
70947;DHT22;58605;48.700;8.760;2023-12-20T01:19:25;3.30;99.90
70947;DHT22;58605;48.700;8.760;2023-12-20T01:21:52;3.20;99.90
70947;DHT22;58605;48.700;8.760;2023-12-20T01:24:19;3.30;99.90
70947;DHT22;58605;48.700;8.760;2023-12-20T01:26:45;3.40;99.90
70947;DHT22;58605;48.700;8.760;2023-12-20T01:29:12;3.40;99.90
70947;DHT22;58605;48.700;8.760;2023-12-20T01:31:40;3.30;99.90
70947;DHT22;58605;48.700;8.760;2023-12-20T01:34:06;3.50;99.90
70947;DHT22;58605;48.700;8.760;2023-12-20T01:36:32;3.50;99.90
70947;DHT22;58605;48.700;8.760;2023-12-20T01:38:58;3.50;99.90
70947;DHT22;58605;48.700;8.760;2023-12-20T01:41:25;3.50;99.90
70947;DHT22;58605;48.700;8.760;2023-12-20T01:43:51;3.60;99.90
70947;DHT22;58605;48.700;8.760;2023-12-20T01:46:20;3.50;99.90
70947;DHT22;58605;48.700;8.760;2023-12-20T01:48:47;3.60;99.90
70947;DHT22;58605;48.700;8.760;2023-12-20T01:51:14;3.70;99.90
70947;DHT22;58605;48.700;8.760;2023-12-20T01:53:41;3.60;99.90
70947;DHT22;58605;48.700;8.760;2023-12-20T01:56:08;3.60;99.90
70947;DHT22;58605;48.700;8.760;2023-12-20T01:58:36;3.50;99.90
70947;DHT22;58605;48.700;8.760;2023-12-20T02:04:28;3.50;99.90
70947;DHT22;58605;48.700;8.760;2023-12-20T02:06:56;3.60;99.90
70947;DHT22;58605;48.700;8.760;2023-12-20T02:09:23;3.70;99.90
70947;DHT22;58605;48.700;8.760;2023-12-20T02:11:50;3.70;99.90
70947;DHT22;58605;48.700;8.760;2023-12-20T02:14:16;3.80;99.90
70947;DHT22;58605;48.700;8.760;2023-12-20T02:16:42;3.80;99.90
70947;DHT22;58605;48.700;8.760;2023-12-20T02:19:12;3.80;99.70
70947;DHT22;58605;48.700;8.760;2023-12-20T02:21:41;3.80;99.70
70947;DHT22;58605;48.700;8.760;2023-12-20T02:24:07;3.70;99.50
70947;DHT22;58605;48.700;8.760;2023-12-20T02:26:34;3.60;99.50
70947;DHT22;58605;48.700;8.760;2023-12-20T02:29:00;3.70;99.70
70947;DHT22;58605;48.700;8.760;2023-12-20T02:31:27;3.80;99.60
70947;DHT22;58605;48.700;8.760;2023-12-20T02:33:53;3.90;99.30
70947;DHT22;58605;48.700;8.760;2023-12-20T02:36:19;3.80;99.00
70947;DHT22;58605;48.700;8.760;2023-12-20T02:38:47;3.80;98.80
70947;DHT22;58605;48.700;8.760;2023-12-20T02:41:13;3.70;98.80
70947;DHT22;58605;48.700;8.760;2023-12-20T02:43:42;3.70;99.10
70947;DHT22;58605;48.700;8.760;2023-12-20T02:46:08;3.80;99.20
70947;DHT22;58605;48.700;8.760;2023-12-20T02:48:35;3.80;98.80
70947;DHT22;58605;48.700;8.760;2023-12-20T02:51:01;3.90;98.70
70947;DHT22;58605;48.700;8.760;2023-12-20T02:53:27;3.90;98.50
70947;DHT22;58605;48.700;8.760;2023-12-20T02:55:55;3.90;98.30
70947;DHT22;58605;48.700;8.760;2023-12-20T02:58:22;4.00;98.20
70947;DHT22;58605;48.700;8.760;2023-12-20T03:00:48;4.00;97.90
70947;DHT22;58605;48.700;8.760;2023-12-20T03:03:14;4.00;97.90
70947;DHT22;58605;48.700;8.760;2023-12-20T03:05:40;3.90;97.70
70947;DHT22;58605;48.700;8.760;2023-12-20T03:08:07;3.90;97.70
70947;DHT22;58605;48.700;8.760;2023-12-20T03:10:33;4.00;97.80
70947;DHT22;58605;48.700;8.760;2023-12-20T03:13:01;4.00;97.50
70947;DHT22;58605;48.700;8.760;2023-12-20T03:15:27;4.00;97.40
70947;DHT22;58605;48.700;8.760;2023-12-20T03:17:53;4.10;97.30
70947;DHT22;58605;48.700;8.760;2023-12-20T03:20:20;4.00;97.20
70947;DHT22;58605;48.700;8.760;2023-12-20T03:22:46;4.00;97.20
70947;DHT22;58605;48.700;8.760;2023-12-20T03:25:12;4.00;97.10
70947;DHT22;58605;48.700;8.760;2023-12-20T03:27:38;4.10;97.10
70947;DHT22;58605;48.700;8.760;2023-12-20T03:30:08;4.10;97.00
70947;DHT22;58605;48.700;8.760;2023-12-20T03:32:35;4.00;96.80
70947;DHT22;58605;48.700;8.760;2023-12-20T03:35:01;4.00;97.00
70947;DHT22;58605;48.700;8.760;2023-12-20T03:37:27;4.00;97.00
70947;DHT22;58605;48.700;8.760;2023-12-20T03:39:54;4.00;97.00
70947;DHT22;58605;48.700;8.760;2023-12-20T03:42:20;4.00;97.00
70947;DHT22;58605;48.700;8.760;2023-12-20T03:44:46;3.90;97.10
70947;DHT22;58605;48.700;8.760;2023-12-20T03:47:14;3.90;97.10
70947;DHT22;58605;48.700;8.760;2023-12-20T03:49:40;4.00;97.20
70947;DHT22;58605;48.700;8.760;2023-12-20T03:52:06;4.00;97.20
70947;DHT22;58605;48.700;8.760;2023-12-20T03:54:32;4.00;97.30
70947;DHT22;58605;48.700;8.760;2023-12-20T03:56:59;4.00;97.20
70947;DHT22;58605;48.700;8.760;2023-12-20T03:59:25;4.00;97.10
70947;DHT22;58605;48.700;8.760;2023-12-20T04:01:51;4.00;97.10
70947;DHT22;58605;48.700;8.760;2023-12-20T04:04:19;4.00;97.10
70947;DHT22;58605;48.700;8.760;2023-12-20T04:06:45;4.00;97.10
70947;DHT22;58605;48.700;8.760;2023-12-20T04:09:11;3.90;97.10
70947;DHT22;58605;48.700;8.760;2023-12-20T04:11:38;3.80;97.20
70947;DHT22;58605;48.700;8.760;2023-12-20T04:14:04;3.70;97.40
70947;DHT22;58605;48.700;8.760;2023-12-20T04:16:30;3.60;97.80
70947;DHT22;58605;48.700;8.760;2023-12-20T04:18:57;3.60;98.10
70947;DHT22;58605;48.700;8.760;2023-12-20T04:21:24;3.50;98.30
70947;DHT22;58605;48.700;8.760;2023-12-20T04:23:50;3.50;98.50
70947;DHT22;58605;48.700;8.760;2023-12-20T04:26:16;3.60;98.70
70947;DHT22;58605;48.700;8.760;2023-12-20T04:28:43;3.70;98.70
70947;DHT22;58605;48.700;8.760;2023-12-20T04:31:09;3.70;98.50
70947;DHT22;58605;48.700;8.760;2023-12-20T04:33:35;3.80;98.30
70947;DHT22;58605;48.700;8.760;2023-12-20T04:36:01;3.80;98.10
70947;DHT22;58605;48.700;8.760;2023-12-20T04:38:29;3.80;98.10
70947;DHT22;58605;48.700;8.760;2023-12-20T04:40:55;3.90;98.30
70947;DHT22;58605;48.700;8.760;2023-12-20T04:43:22;4.00;97.90
70947;DHT22;58605;48.700;8.760;2023-12-20T04:45:48;3.90;97.70
70947;DHT22;58605;48.700;8.760;2023-12-20T04:48:14;3.90;97.60
70947;DHT22;58605;48.700;8.760;2023-12-20T04:50:40;3.90;97.50
70947;DHT22;58605;48.700;8.760;2023-12-20T04:53:06;4.00;97.40
70947;DHT22;58605;48.700;8.760;2023-12-20T04:55:34;3.90;97.40
70947;DHT22;58605;48.700;8.760;2023-12-20T04:58:01;4.00;97.50
70947;DHT22;58605;48.700;8.760;2023-12-20T05:00:27;3.90;97.20
70947;DHT22;58605;48.700;8.760;2023-12-20T05:02:53;3.80;97.40
70947;DHT22;58605;48.700;8.760;2023-12-20T05:05:20;3.80;97.60
70947;DHT22;58605;48.700;8.760;2023-12-20T05:07:46;3.80;97.60
70947;DHT22;58605;48.700;8.760;2023-12-20T05:10:12;3.70;97.80
70947;DHT22;58605;48.700;8.760;2023-12-20T05:12:40;3.80;97.90
70947;DHT22;58605;48.700;8.760;2023-12-20T05:15:07;4.00;97.90
70947;DHT22;58605;48.700;8.760;2023-12-20T05:17:33;4.00;97.50
70947;DHT22;58605;48.700;8.760;2023-12-20T05:20:00;4.00;97.40
70947;DHT22;58605;48.700;8.760;2023-12-20T05:22:26;4.10;97.30
70947;DHT22;58605;48.700;8.760;2023-12-20T05:24:53;4.10;97.20
70947;DHT22;58605;48.700;8.760;2023-12-20T05:27:19;4.30;97.20
70947;DHT22;58605;48.700;8.760;2023-12-20T05:29:47;4.30;96.80
70947;DHT22;58605;48.700;8.760;2023-12-20T05:32:13;4.20;96.70
70947;DHT22;58605;48.700;8.760;2023-12-20T05:34:39;4.00;96.80
70947;DHT22;58605;48.700;8.760;2023-12-20T05:37:05;4.00;97.20
70947;DHT22;58605;48.700;8.760;2023-12-20T05:39:31;4.00;97.20
70947;DHT22;58605;48.700;8.760;2023-12-20T05:41:57;3.90;97.30
70947;DHT22;58605;48.700;8.760;2023-12-20T05:44:23;4.00;97.50
70947;DHT22;58605;48.700;8.760;2023-12-20T05:46:51;3.90;97.40
70947;DHT22;58605;48.700;8.760;2023-12-20T05:49:17;3.90;97.80
70947;DHT22;58605;48.700;8.760;2023-12-20T05:51:43;4.10;97.80
70947;DHT22;58605;48.700;8.760;2023-12-20T05:54:10;4.10;97.50
70947;DHT22;58605;48.700;8.760;2023-12-20T05:56:36;4.20;97.30
70947;DHT22;58605;48.700;8.760;2023-12-20T05:59:02;4.20;97.10
70947;DHT22;58605;48.700;8.760;2023-12-20T06:01:29;4.30;97.00
70947;DHT22;58605;48.700;8.760;2023-12-20T06:03:56;4.40;96.70
70947;DHT22;58605;48.700;8.760;2023-12-20T06:06:23;4.40;96.50
70947;DHT22;58605;48.700;8.760;2023-12-20T06:08:49;4.40;96.30
70947;DHT22;58605;48.700;8.760;2023-12-20T06:11:15;4.50;96.20
70947;DHT22;58605;48.700;8.760;2023-12-20T06:13:41;4.50;96.00
70947;DHT22;58605;48.700;8.760;2023-12-20T06:16:08;4.40;95.80
70947;DHT22;58605;48.700;8.760;2023-12-20T06:18:34;4.30;95.90
70947;DHT22;58605;48.700;8.760;2023-12-20T06:21:02;4.30;95.90
70947;DHT22;58605;48.700;8.760;2023-12-20T06:23:28;4.20;96.10
70947;DHT22;58605;48.700;8.760;2023-12-20T06:25:54;4.30;96.20
70947;DHT22;58605;48.700;8.760;2023-12-20T06:28:20;4.30;96.10
70947;DHT22;58605;48.700;8.760;2023-12-20T06:30:46;4.30;96.00
70947;DHT22;58605;48.700;8.760;2023-12-20T06:33:15;4.20;96.10
70947;DHT22;58605;48.700;8.760;2023-12-20T06:35:41;4.10;96.20
70947;DHT22;58605;48.700;8.760;2023-12-20T06:38:09;4.20;96.50
70947;DHT22;58605;48.700;8.760;2023-12-20T06:40:35;4.30;96.50
70947;DHT22;58605;48.700;8.760;2023-12-20T06:43:01;4.30;96.30
70947;DHT22;58605;48.700;8.760;2023-12-20T06:45:27;4.30;96.30
70947;DHT22;58605;48.700;8.760;2023-12-20T06:47:53;4.40;96.10
70947;DHT22;58605;48.700;8.760;2023-12-20T06:50:20;4.30;96.20
70947;DHT22;58605;48.700;8.760;2023-12-20T06:52:47;4.30;96.10
70947;DHT22;58605;48.700;8.760;2023-12-20T06:55:14;4.30;96.10
70947;DHT22;58605;48.700;8.760;2023-12-20T06:57:41;4.30;96.10
70947;DHT22;58605;48.700;8.760;2023-12-20T07:00:08;4.40;96.30
70947;DHT22;58605;48.700;8.760;2023-12-20T07:02:34;4.40;96.60
70947;DHT22;58605;48.700;8.760;2023-12-20T07:05:00;4.40;96.50
70947;DHT22;58605;48.700;8.760;2023-12-20T07:07:26;4.40;96.30
70947;DHT22;58605;48.700;8.760;2023-12-20T07:09:52;4.50;96.30
70947;DHT22;58605;48.700;8.760;2023-12-20T07:12:20;4.50;96.20
70947;DHT22;58605;48.700;8.760;2023-12-20T07:14:46;4.80;96.70
70947;DHT22;58605;48.700;8.760;2023-12-20T07:17:13;4.80;96.00
70947;DHT22;58605;48.700;8.760;2023-12-20T07:19:41;4.70;95.80
70947;DHT22;58605;48.700;8.760;2023-12-20T07:22:08;4.70;95.60
70947;DHT22;58605;48.700;8.760;2023-12-20T07:24:35;4.70;95.40
70947;DHT22;58605;48.700;8.760;2023-12-20T07:27:01;4.80;95.80
70947;DHT22;58605;48.700;8.760;2023-12-20T07:29:29;4.80;95.20
70947;DHT22;58605;48.700;8.760;2023-12-20T07:31:55;4.70;95.30
70947;DHT22;58605;48.700;8.760;2023-12-20T07:34:21;4.70;95.10
70947;DHT22;58605;48.700;8.760;2023-12-20T07:36:50;4.70;95.20
70947;DHT22;58605;48.700;8.760;2023-12-20T07:39:16;4.70;95.40
70947;DHT22;58605;48.700;8.760;2023-12-20T07:41:42;4.60;95.00
70947;DHT22;58605;48.700;8.760;2023-12-20T07:44:08;4.60;95.00
70947;DHT22;58605;48.700;8.760;2023-12-20T07:46:36;4.60;95.10
70947;DHT22;58605;48.700;8.760;2023-12-20T07:49:04;4.50;95.00
70947;DHT22;58605;48.700;8.760;2023-12-20T07:51:30;4.50;95.20
70947;DHT22;58605;48.700;8.760;2023-12-20T07:53:57;4.80;95.50
70947;DHT22;58605;48.700;8.760;2023-12-20T07:56:23;4.80;95.00
70947;DHT22;58605;48.700;8.760;2023-12-20T07:58:49;4.80;95.00
70947;DHT22;58605;48.700;8.760;2023-12-20T08:01:16;4.80;94.80
70947;DHT22;58605;48.700;8.760;2023-12-20T08:03:45;4.70;94.80
70947;DHT22;58605;48.700;8.760;2023-12-20T08:06:12;4.70;94.80
70947;DHT22;58605;48.700;8.760;2023-12-20T08:08:38;4.70;95.20
70947;DHT22;58605;48.700;8.760;2023-12-20T08:11:04;4.60;95.50
70947;DHT22;58605;48.700;8.760;2023-12-20T08:13:30;4.70;95.70
70947;DHT22;58605;48.700;8.760;2023-12-20T08:15:57;4.70;95.70
70947;DHT22;58605;48.700;8.760;2023-12-20T08:18:23;4.80;95.80
70947;DHT22;58605;48.700;8.760;2023-12-20T08:20:50;4.80;95.40
70947;DHT22;58605;48.700;8.760;2023-12-20T08:23:19;4.80;95.20
70947;DHT22;58605;48.700;8.760;2023-12-20T08:25:46;4.80;94.80
70947;DHT22;58605;48.700;8.760;2023-12-20T08:28:13;4.60;95.30
70947;DHT22;58605;48.700;8.760;2023-12-20T08:30:40;4.60;95.20
70947;DHT22;58605;48.700;8.760;2023-12-20T08:33:06;4.50;95.20
70947;DHT22;58605;48.700;8.760;2023-12-20T08:35:37;4.60;95.10
70947;DHT22;58605;48.700;8.760;2023-12-20T08:38:04;4.70;94.70
70947;DHT22;58605;48.700;8.760;2023-12-20T08:40:30;4.70;93.70
70947;DHT22;58605;48.700;8.760;2023-12-20T08:42:57;4.90;92.70
70947;DHT22;58605;48.700;8.760;2023-12-20T08:45:23;4.90;92.90
70947;DHT22;58605;48.700;8.760;2023-12-20T08:47:49;4.80;93.10
70947;DHT22;58605;48.700;8.760;2023-12-20T08:50:15;4.90;92.50
70947;DHT22;58605;48.700;8.760;2023-12-20T08:52:42;5.00;92.00
70947;DHT22;58605;48.700;8.760;2023-12-20T08:55:09;5.00;92.00
70947;DHT22;58605;48.700;8.760;2023-12-20T08:57:36;5.10;91.20
70947;DHT22;58605;48.700;8.760;2023-12-20T09:00:03;5.00;91.60
70947;DHT22;58605;48.700;8.760;2023-12-20T09:02:29;5.10;91.50
70947;DHT22;58605;48.700;8.760;2023-12-20T09:04:55;5.10;91.70
70947;DHT22;58605;48.700;8.760;2023-12-20T09:07:22;5.00;91.90
70947;DHT22;58605;48.700;8.760;2023-12-20T09:09:48;4.90;91.80
70947;DHT22;58605;48.700;8.760;2023-12-20T09:12:17;4.90;91.70
70947;DHT22;58605;48.700;8.760;2023-12-20T09:14:44;5.00;91.70
70947;DHT22;58605;48.700;8.760;2023-12-20T09:17:10;4.90;92.60
70947;DHT22;58605;48.700;8.760;2023-12-20T09:19:45;4.90;92.10
70947;DHT22;58605;48.700;8.760;2023-12-20T09:22:11;5.00;91.80
70947;DHT22;58605;48.700;8.760;2023-12-20T09:24:37;4.80;92.70
70947;DHT22;58605;48.700;8.760;2023-12-20T09:27:04;4.80;93.00
70947;DHT22;58605;48.700;8.760;2023-12-20T09:29:33;4.80;93.30
70947;DHT22;58605;48.700;8.760;2023-12-20T09:31:59;4.80;93.40
70947;DHT22;58605;48.700;8.760;2023-12-20T09:34:25;4.90;92.90
70947;DHT22;58605;48.700;8.760;2023-12-20T09:36:52;4.80;93.30
70947;DHT22;58605;48.700;8.760;2023-12-20T09:39:19;4.80;92.90
70947;DHT22;58605;48.700;8.760;2023-12-20T09:42:01;4.70;93.60
70947;DHT22;58605;48.700;8.760;2023-12-20T09:44:28;4.60;93.50
70947;DHT22;58605;48.700;8.760;2023-12-20T09:46:57;4.70;93.20
70947;DHT22;58605;48.700;8.760;2023-12-20T09:49:23;4.60;93.60
70947;DHT22;58605;48.700;8.760;2023-12-20T09:51:51;4.50;94.30
70947;DHT22;58605;48.700;8.760;2023-12-20T09:54:18;4.40;94.40
70947;DHT22;58605;48.700;8.760;2023-12-20T09:56:44;4.40;94.50
70947;DHT22;58605;48.700;8.760;2023-12-20T09:59:11;4.60;93.50
70947;DHT22;58605;48.700;8.760;2023-12-20T10:01:38;4.50;94.20
70947;DHT22;58605;48.700;8.760;2023-12-20T10:04:09;4.50;94.20
70947;DHT22;58605;48.700;8.760;2023-12-20T10:06:37;4.30;94.40
70947;DHT22;58605;48.700;8.760;2023-12-20T10:09:04;4.50;93.60
70947;DHT22;58605;48.700;8.760;2023-12-20T10:11:30;4.50;93.80
70947;DHT22;58605;48.700;8.760;2023-12-20T10:13:59;4.40;94.30
70947;DHT22;58605;48.700;8.760;2023-12-20T10:16:27;4.60;93.70
70947;DHT22;58605;48.700;8.760;2023-12-20T10:18:53;4.50;94.00
70947;DHT22;58605;48.700;8.760;2023-12-20T10:21:21;4.70;93.20
70947;DHT22;58605;48.700;8.760;2023-12-20T10:23:48;4.40;93.90
70947;DHT22;58605;48.700;8.760;2023-12-20T10:26:19;4.40;94.20
70947;DHT22;58605;48.700;8.760;2023-12-20T10:28:49;4.40;94.30
70947;DHT22;58605;48.700;8.760;2023-12-20T10:31:26;4.40;94.20
70947;DHT22;58605;48.700;8.760;2023-12-20T10:33:53;4.40;94.20
70947;DHT22;58605;48.700;8.760;2023-12-20T10:36:21;4.40;94.30
70947;DHT22;58605;48.700;8.760;2023-12-20T10:38:50;4.40;94.20
70947;DHT22;58605;48.700;8.760;2023-12-20T10:41:21;4.70;93.20
70947;DHT22;58605;48.700;8.760;2023-12-20T10:43:51;4.50;93.70
70947;DHT22;58605;48.700;8.760;2023-12-20T10:46:18;4.30;94.00
70947;DHT22;58605;48.700;8.760;2023-12-20T10:48:46;4.30;94.30
70947;DHT22;58605;48.700;8.760;2023-12-20T10:51:14;4.20;94.60
70947;DHT22;58605;48.700;8.760;2023-12-20T10:53:47;4.30;94.00
70947;DHT22;58605;48.700;8.760;2023-12-20T10:56:16;4.30;93.60
70947;DHT22;58605;48.700;8.760;2023-12-20T10:58:44;4.20;93.60
70947;DHT22;58605;48.700;8.760;2023-12-20T11:01:12;4.20;94.00
70947;DHT22;58605;48.700;8.760;2023-12-20T11:03:43;4.10;94.80
70947;DHT22;58605;48.700;8.760;2023-12-20T11:06:18;4.10;94.90
70947;DHT22;58605;48.700;8.760;2023-12-20T11:08:51;4.00;95.10
70947;DHT22;58605;48.700;8.760;2023-12-20T11:11:26;4.10;94.90
70947;DHT22;58605;48.700;8.760;2023-12-20T11:13:58;3.90;95.40
70947;DHT22;58605;48.700;8.760;2023-12-20T11:16:25;4.20;93.90
70947;DHT22;58605;48.700;8.760;2023-12-20T11:18:51;3.90;95.50
70947;DHT22;58605;48.700;8.760;2023-12-20T11:21:18;3.80;95.70
70947;DHT22;58605;48.700;8.760;2023-12-20T11:23:44;4.10;94.00
70947;DHT22;58605;48.700;8.760;2023-12-20T11:26:15;4.00;94.80
70947;DHT22;58605;48.700;8.760;2023-12-20T11:28:42;4.00;94.90
70947;DHT22;58605;48.700;8.760;2023-12-20T11:31:08;3.90;94.90
70947;DHT22;58605;48.700;8.760;2023-12-20T11:33:40;4.00;95.00
70947;DHT22;58605;48.700;8.760;2023-12-20T11:36:13;4.00;94.60
70947;DHT22;58605;48.700;8.760;2023-12-20T11:38:53;4.00;94.60
70947;DHT22;58605;48.700;8.760;2023-12-20T11:41:22;4.00;94.80
70947;DHT22;58605;48.700;8.760;2023-12-20T11:43:49;4.00;94.80
70947;DHT22;58605;48.700;8.760;2023-12-20T11:46:18;4.30;93.70
70947;DHT22;58605;48.700;8.760;2023-12-20T11:48:45;4.20;94.20
70947;DHT22;58605;48.700;8.760;2023-12-20T11:51:11;4.10;94.60
70947;DHT22;58605;48.700;8.760;2023-12-20T11:53:38;4.10;94.80
70947;DHT22;58605;48.700;8.760;2023-12-20T11:56:05;4.00;95.10
70947;DHT22;58605;48.700;8.760;2023-12-20T11:58:33;4.00;95.10
70947;DHT22;58605;48.700;8.760;2023-12-20T12:00:59;3.90;95.30
70947;DHT22;58605;48.700;8.760;2023-12-20T12:03:28;3.80;95.60
70947;DHT22;58605;48.700;8.760;2023-12-20T12:05:54;3.80;95.60
70947;DHT22;58605;48.700;8.760;2023-12-20T12:08:49;3.80;95.60
70947;DHT22;58605;48.700;8.760;2023-12-20T12:11:22;3.70;95.60
70947;DHT22;58605;48.700;8.760;2023-12-20T12:13:48;3.80;95.40
70947;DHT22;58605;48.700;8.760;2023-12-20T12:16:17;3.80;95.50
70947;DHT22;58605;48.700;8.760;2023-12-20T12:18:44;3.90;95.00
70947;DHT22;58605;48.700;8.760;2023-12-20T12:21:11;4.00;95.00
70947;DHT22;58605;48.700;8.760;2023-12-20T12:23:44;4.10;94.50
70947;DHT22;58605;48.700;8.760;2023-12-20T12:26:12;4.00;94.90
70947;DHT22;58605;48.700;8.760;2023-12-20T12:28:40;3.90;95.20
70947;DHT22;58605;48.700;8.760;2023-12-20T12:31:07;4.10;93.40
70947;DHT22;58605;48.700;8.760;2023-12-20T12:33:34;4.30;92.90
70947;DHT22;58605;48.700;8.760;2023-12-20T12:36:00;4.20;93.30
70947;DHT22;58605;48.700;8.760;2023-12-20T12:38:27;4.10;94.20
70947;DHT22;58605;48.700;8.760;2023-12-20T12:40:54;4.00;94.70
70947;DHT22;58605;48.700;8.760;2023-12-20T12:43:22;4.10;92.70
70947;DHT22;58605;48.700;8.760;2023-12-20T12:45:48;4.10;94.00
70947;DHT22;58605;48.700;8.760;2023-12-20T12:48:15;4.50;90.60
70947;DHT22;58605;48.700;8.760;2023-12-20T12:50:41;4.30;93.00
70947;DHT22;58605;48.700;8.760;2023-12-20T12:53:07;4.20;93.60
70947;DHT22;58605;48.700;8.760;2023-12-20T12:55:34;4.20;93.80
70947;DHT22;58605;48.700;8.760;2023-12-20T12:58:01;4.00;94.50
70947;DHT22;58605;48.700;8.760;2023-12-20T13:00:28;3.90;94.90
70947;DHT22;58605;48.700;8.760;2023-12-20T13:02:54;3.90;94.90
70947;DHT22;58605;48.700;8.760;2023-12-20T13:05:21;3.90;94.90
70947;DHT22;58605;48.700;8.760;2023-12-20T13:07:47;3.90;94.70
70947;DHT22;58605;48.700;8.760;2023-12-20T13:10:13;3.90;94.80
70947;DHT22;58605;48.700;8.760;2023-12-20T13:12:42;3.90;95.00
70947;DHT22;58605;48.700;8.760;2023-12-20T13:15:09;3.90;95.10
70947;DHT22;58605;48.700;8.760;2023-12-20T13:17:36;3.90;95.10
70947;DHT22;58605;48.700;8.760;2023-12-20T13:20:03;3.90;95.00
70947;DHT22;58605;48.700;8.760;2023-12-20T13:22:30;4.00;94.40
70947;DHT22;58605;48.700;8.760;2023-12-20T13:24:56;4.00;94.60
70947;DHT22;58605;48.700;8.760;2023-12-20T13:27:22;4.00;94.60
70947;DHT22;58605;48.700;8.760;2023-12-20T13:29:48;3.90;94.80
70947;DHT22;58605;48.700;8.760;2023-12-20T13:32:14;4.00;94.80
70947;DHT22;58605;48.700;8.760;2023-12-20T13:34:42;4.00;94.60
70947;DHT22;58605;48.700;8.760;2023-12-20T13:37:08;4.00;94.50
70947;DHT22;58605;48.700;8.760;2023-12-20T13:39:34;4.30;91.90
70947;DHT22;58605;48.700;8.760;2023-12-20T13:42:01;4.20;93.90
70947;DHT22;58605;48.700;8.760;2023-12-20T13:44:27;4.40;92.40
70947;DHT22;58605;48.700;8.760;2023-12-20T13:46:53;4.30;93.10
70947;DHT22;58605;48.700;8.760;2023-12-20T13:49:19;4.20;93.60
70947;DHT22;58605;48.700;8.760;2023-12-20T13:51:47;4.20;93.90
70947;DHT22;58605;48.700;8.760;2023-12-20T13:54:13;4.10;93.90
70947;DHT22;58605;48.700;8.760;2023-12-20T13:56:39;4.20;94.10
70947;DHT22;58605;48.700;8.760;2023-12-20T13:59:05;4.20;94.00
70947;DHT22;58605;48.700;8.760;2023-12-20T14:01:32;4.10;94.00
70947;DHT22;58605;48.700;8.760;2023-12-20T14:03:58;4.00;94.70
70947;DHT22;58605;48.700;8.760;2023-12-20T14:06:25;4.00;94.70
70947;DHT22;58605;48.700;8.760;2023-12-20T14:08:52;3.90;94.70
70947;DHT22;58605;48.700;8.760;2023-12-20T14:11:18;4.00;94.70
70947;DHT22;58605;48.700;8.760;2023-12-20T14:13:45;4.00;94.70
70947;DHT22;58605;48.700;8.760;2023-12-20T14:16:11;3.90;95.10
70947;DHT22;58605;48.700;8.760;2023-12-20T14:18:38;4.00;94.60
70947;DHT22;58605;48.700;8.760;2023-12-20T14:21:05;4.00;94.90
70947;DHT22;58605;48.700;8.760;2023-12-20T14:23:32;4.00;94.90
70947;DHT22;58605;48.700;8.760;2023-12-20T14:26:01;4.00;94.90
70947;DHT22;58605;48.700;8.760;2023-12-20T14:28:28;4.00;95.10
70947;DHT22;58605;48.700;8.760;2023-12-20T14:30:54;3.90;95.40
70947;DHT22;58605;48.700;8.760;2023-12-20T14:33:20;3.90;95.40
70947;DHT22;58605;48.700;8.760;2023-12-20T14:35:47;4.00;95.40
70947;DHT22;58605;48.700;8.760;2023-12-20T14:38:14;3.90;95.40
70947;DHT22;58605;48.700;8.760;2023-12-20T14:40:40;3.90;95.50
70947;DHT22;58605;48.700;8.760;2023-12-20T14:43:08;4.00;95.40
70947;DHT22;58605;48.700;8.760;2023-12-20T14:45:34;3.90;95.70
70947;DHT22;58605;48.700;8.760;2023-12-20T14:48:00;3.90;95.70
70947;DHT22;58605;48.700;8.760;2023-12-20T14:50:27;3.90;95.70
70947;DHT22;58605;48.700;8.760;2023-12-20T14:52:53;3.90;95.90
70947;DHT22;58605;48.700;8.760;2023-12-20T14:55:21;3.90;95.60
70947;DHT22;58605;48.700;8.760;2023-12-20T14:57:47;3.90;95.70
70947;DHT22;58605;48.700;8.760;2023-12-20T15:00:16;3.80;95.80
70947;DHT22;58605;48.700;8.760;2023-12-20T15:02:42;3.80;96.00
70947;DHT22;58605;48.700;8.760;2023-12-20T15:05:09;3.80;96.10
70947;DHT22;58605;48.700;8.760;2023-12-20T15:07:35;3.80;96.10
70947;DHT22;58605;48.700;8.760;2023-12-20T15:10:03;3.80;96.20
70947;DHT22;58605;48.700;8.760;2023-12-20T15:12:29;3.80;96.30
70947;DHT22;58605;48.700;8.760;2023-12-20T15:14:55;3.80;96.10
70947;DHT22;58605;48.700;8.760;2023-12-20T15:17:23;3.80;96.40
70947;DHT22;58605;48.700;8.760;2023-12-20T15:19:51;3.80;96.30
70947;DHT22;58605;48.700;8.760;2023-12-20T15:22:17;3.90;96.20
70947;DHT22;58605;48.700;8.760;2023-12-20T15:24:43;3.90;96.20
70947;DHT22;58605;48.700;8.760;2023-12-20T15:27:12;3.80;96.20
70947;DHT22;58605;48.700;8.760;2023-12-20T15:29:38;3.80;96.30
70947;DHT22;58605;48.700;8.760;2023-12-20T15:32:05;3.90;96.10
70947;DHT22;58605;48.700;8.760;2023-12-20T15:34:33;3.90;96.20
70947;DHT22;58605;48.700;8.760;2023-12-20T15:36:59;3.90;96.10
70947;DHT22;58605;48.700;8.760;2023-12-20T15:39:26;3.90;96.00
70947;DHT22;58605;48.700;8.760;2023-12-20T15:41:52;4.00;96.10
70947;DHT22;58605;48.700;8.760;2023-12-20T15:44:18;3.90;96.20
70947;DHT22;58605;48.700;8.760;2023-12-20T15:46:44;3.90;96.20